createdAt,value
2023-02-05T00:04:54.392Z,15.10
2023-02-05T00:08:43.450Z,15.80
2023-02-05T00:12:32.435Z,13.30
2023-02-05T00:16:21.775Z,16.10
2023-02-05T00:20:10.835Z,14.60
2023-02-05T00:23:59.799Z,19.60
2023-02-05T00:27:48.929Z,13.70
2023-02-05T00:31:38.649Z,16.60
2023-02-05T00:35:27.864Z,15.10
2023-02-05T00:39:17.145Z,19.50
2023-02-05T00:43:06.267Z,20.10
2023-02-05T00:46:55.446Z,18.50
2023-02-05T00:50:44.505Z,16.80
2023-02-05T00:54:33.512Z,14.80
2023-02-05T00:58:22.559Z,18.50
2023-02-05T01:02:11.966Z,16.80
2023-02-05T01:06:04.579Z,16.60
2023-02-05T01:09:33.889Z,16.40
2023-02-05T01:13:24.046Z,18.20
2023-02-05T01:29:03.611Z,21.50
2023-02-05T01:32:52.825Z,20.20
2023-02-05T01:36:41.979Z,20.50
2023-02-05T01:40:30.975Z,21.50
2023-02-05T01:44:19.987Z,19.20
2023-02-05T01:48:09.034Z,18.20
2023-02-05T02:07:20.309Z,19.60
2023-02-05T02:11:10.144Z,19.60
2023-02-05T02:14:59.381Z,20.00
2023-02-05T02:18:48.330Z,15.50
2023-02-05T02:22:43.555Z,20.90
2023-02-05T02:26:33.831Z,19.90
2023-02-05T02:38:50.232Z,22.00
2023-02-05T02:42:57.290Z,21.40
2023-02-05T02:46:46.438Z,19.50
2023-02-05T02:58:43.188Z,19.40
2023-02-05T03:02:35.298Z,20.90
2023-02-05T03:06:24.486Z,19.60
2023-02-05T03:10:11.630Z,20.90
2023-02-05T03:14:00.875Z,19.60
2023-02-05T03:17:50.486Z,16.60
2023-02-05T03:21:39.587Z,16.60
2023-02-05T03:33:33.357Z,19.10
2023-02-05T03:37:37.369Z,18.60
2023-02-05T03:49:44.660Z,22.50
2023-02-05T03:53:32.164Z,24.10
2023-02-05T04:08:50.790Z,24.30
2023-02-05T04:12:39.776Z,26.20
2023-02-05T04:16:30.728Z,24.50
2023-02-05T04:24:17.835Z,29.80
2023-02-05T04:28:06.751Z,37.50
2023-02-05T04:31:56.293Z,29.20
2023-02-05T04:35:45.593Z,26.60
2023-02-05T04:39:35.229Z,26.50
2023-02-05T04:43:24.205Z,29.50
2023-02-05T04:47:13.328Z,24.90
2023-02-05T04:51:02.461Z,27.00
2023-02-05T04:54:51.902Z,27.20
2023-02-05T04:58:40.849Z,31.40
2023-02-05T05:02:30.274Z,31.30
2023-02-05T05:06:19.530Z,35.20
2023-02-05T05:10:08.905Z,31.70
2023-02-05T05:13:57.900Z,31.00
2023-02-05T05:17:47.384Z,33.90
2023-02-05T05:21:36.425Z,32.40
2023-02-05T05:25:25.532Z,27.60
2023-02-05T05:29:14.674Z,26.70
2023-02-05T05:33:04.083Z,33.90
2023-02-05T05:36:53.239Z,33.50
2023-02-05T05:40:41.220Z,35.40
2023-02-05T05:44:30.365Z,33.60
2023-02-05T05:48:19.545Z,25.80
2023-02-05T05:51:59.557Z,33.50
2023-02-05T05:55:48.868Z,31.60
2023-02-05T06:00:07.332Z,31.70
2023-02-05T06:03:56.259Z,31.40
2023-02-05T06:07:45.364Z,34.00
2023-02-05T06:11:34.341Z,37.00
2023-02-05T06:15:16.003Z,29.70
2023-02-05T06:19:05.371Z,29.30
2023-02-05T06:22:54.391Z,28.20
2023-02-05T06:26:26.369Z,37.40
2023-02-05T06:30:15.203Z,38.10
2023-02-05T06:34:06.229Z,43.20
2023-02-05T06:37:55.243Z,38.60
2023-02-05T06:41:44.726Z,42.30
2023-02-05T06:45:33.977Z,46.80
2023-02-05T06:49:23.468Z,46.60
2023-02-05T06:53:12.398Z,34.90
2023-02-05T06:57:01.377Z,43.10
2023-02-05T07:00:50.771Z,44.40
2023-02-05T07:04:40.135Z,42.40
2023-02-05T07:08:57.529Z,48.00
2023-02-05T07:12:46.862Z,46.00
2023-02-05T07:16:38.663Z,47.00
2023-02-05T07:20:28.695Z,58.10
2023-02-05T07:24:17.857Z,62.30
2023-02-05T07:28:07.844Z,53.80
2023-02-05T07:43:47.665Z,63.10
2023-02-05T07:47:36.704Z,73.30
2023-02-05T07:51:26.777Z,77.70
2023-02-05T07:55:15.989Z,88.00
2023-02-05T07:59:05.080Z,92.40
2023-02-05T08:02:54.404Z,98.50
2023-02-05T08:06:46.472Z,96.80
2023-02-05T08:10:35.625Z,73.40
2023-02-05T08:14:24.579Z,74.50
2023-02-05T08:18:13.753Z,58.30
2023-02-05T08:22:02.198Z,54.20
2023-02-05T08:25:51.174Z,69.10
2023-02-05T08:29:38.968Z,72.60
2023-02-05T08:33:28.315Z,82.10
2023-02-05T08:37:17.360Z,56.10
2023-02-05T08:41:06.563Z,56.80
2023-02-05T08:44:54.492Z,45.80
2023-02-05T08:48:43.381Z,48.10
2023-02-05T08:52:33.321Z,43.90
2023-02-05T08:56:21.565Z,39.00
2023-02-05T09:00:10.583Z,42.30
2023-02-05T09:16:06.856Z,37.40
2023-02-05T09:19:54.506Z,34.30
2023-02-05T09:23:42.089Z,36.30
2023-02-05T09:27:29.285Z,36.20
2023-02-05T09:31:18.690Z,33.70
2023-02-05T09:35:07.826Z,40.00
2023-02-05T09:39:04.955Z,28.80
2023-02-05T09:51:18.534Z,28.20
2023-02-05T09:59:08.346Z,86.00
2023-02-05T10:03:03.384Z,75.10
2023-02-05T10:06:52.830Z,27.50
2023-02-05T10:23:16.972Z,31.60
2023-02-05T10:27:12.079Z,22.40
2023-02-05T10:31:32.136Z,20.00
2023-02-05T10:35:33.663Z,26.60
2023-02-05T10:39:26.383Z,36.20
